Time;durP1;ratioP1;P1;durP2;ratioP2;P2;SDS_P1;SDS_P2;PMS_P1;PMS_P2;Temp;Humidity;BMP_temperature;BMP_pressure;BME280_temperature;BME280_humidity;BME280_pressure;Samples;Min_cycle;Max_cycle;Signal;HPM_P1;HPM_P2
2024/04/13 00:02:00;;;;;;;7.30;4.40;;;;;;;12.63;69.04;97607.75;108782;1272;22521;-71
2024/04/13 00:04:31;;;;;;;6.80;3.90;;;;;;;12.65;68.81;97608.21;108709;1272;22527;-71
2024/04/13 00:07:01;;;;;;;7.20;4.40;;;;;;;12.63;68.65;97605.88;108754;1272;22587;-71
2024/04/13 00:09:32;;;;;;;6.80;4.60;;;;;;;12.61;68.57;97608.06;108836;1269;24250;-71
2024/04/13 00:12:03;;;;;;;6.40;4.00;;;;;;;12.61;68.56;97609.55;108803;1272;22509;-72
2024/04/13 00:14:34;;;;;;;6.70;4.30;;;;;;;12.55;68.40;97606.64;108787;1266;22530;-71
2024/04/13 00:17:07;;;;;;;7.40;4.10;;;;;;;12.47;68.61;97609.77;108789;1272;22515;-71
2024/04/13 00:19:39;;;;;;;7.30;4.50;;;;;;;12.46;68.67;97602.48;108873;1272;24298;-71
2024/04/13 00:22:11;;;;;;;8.10;4.40;;;;;;;12.45;68.81;97604.71;108759;1266;22522;-72
2024/04/13 00:24:42;;;;;;;6.70;4.50;;;;;;;12.28;68.63;97604.54;108793;1272;24254;-71
2024/04/13 00:27:14;;;;;;;4.60;3.30;;;;;;;11.98;68.97;97609.17;108751;1272;22532;-71
2024/04/13 00:29:44;;;;;;;8.70;3.80;;;;;;;11.71;69.56;97605.81;108785;1266;23018;-72
2024/04/13 00:32:17;;;;;;;7.00;4.20;;;;;;;11.60;70.14;97603.34;108806;1271;22554;-72
2024/04/13 00:34:48;;;;;;;6.40;4.10;;;;;;;11.52;70.41;97602.39;108781;1272;22537;-72
2024/04/13 00:37:19;;;;;;;8.00;4.50;;;;;;;11.34;70.84;97606.99;108762;1272;22512;-72
2024/04/13 00:39:49;;;;;;;6.50;3.70;;;;;;;11.30;71.49;97603.73;108743;1272;22485;-72
2024/04/13 00:42:21;;;;;;;7.20;4.00;;;;;;;11.38;72.07;97606.53;108712;1271;22641;-71
2024/04/13 00:45:01;;;;;;;8.60;4.60;;;;;;;11.61;72.31;97606.04;108753;1250;22523;-71
2024/04/13 00:47:34;;;;;;;7.90;4.30;;;;;;;11.79;72.29;97606.91;108788;1266;23077;-72
2024/04/13 00:50:11;;;;;;;6.00;3.80;;;;;;;12.01;72.14;97604.13;108792;1266;25397;-72
2024/04/13 00:52:45;;;;;;;12.20;5.70;;;;;;;12.14;71.68;97605.33;108734;1265;22631;-71
2024/04/13 00:55:17;;;;;;;7.50;3.70;;;;;;;12.28;71.55;97604.80;108821;1272;22522;-72
2024/04/13 00:57:47;;;;;;;7.40;4.40;;;;;;;12.44;71.17;97606.69;108757;1268;23001;-72
2024/04/13 01:00:19;;;;;;;5.30;3.70;;;;;;;12.53;70.80;97605.04;108787;1272;26428;-71
2024/04/13 01:02:51;;;;;;;9.00;4.60;;;;;;;12.54;70.57;97606.27;108746;1271;22635;-72
2024/04/13 01:05:23;;;;;;;8.00;4.30;;;;;;;12.55;70.33;97604.52;108819;1272;23869;-71
2024/04/13 01:07:54;;;;;;;9.20;4.50;;;;;;;12.54;70.15;97603.55;108719;1266;26731;-71
2024/04/13 01:10:25;;;;;;;8.70;4.50;;;;;;;12.51;70.03;97606.67;108790;1272;25432;-71
2024/04/13 01:12:55;;;;;;;6.30;4.30;;;;;;;12.41;70.02;97602.96;108747;1271;22531;-71
2024/04/13 01:15:27;;;;;;;7.30;4.20;;;;;;;12.34;70.09;97603.11;108776;1266;22548;-71
2024/04/13 01:17:58;;;;;;;8.20;4.20;;;;;;;12.28;70.16;97600.40;108773;1272;22565;-71
2024/04/13 01:20:29;;;;;;;7.00;4.10;;;;;;;12.19;70.19;97592.52;108788;1272;22519;-72
2024/04/13 01:23:00;;;;;;;9.60;4.70;;;;;;;12.12;70.48;97590.33;108763;1262;22635;-72
2024/04/13 01:25:31;;;;;;;12.60;4.30;;;;;;;12.04;70.75;97595.46;108772;1266;22545;-71
2024/04/13 01:28:02;;;;;;;6.60;4.30;;;;;;;11.96;70.87;97604.11;108728;1272;25441;-71
2024/04/13 01:30:34;;;;;;;6.90;4.30;;;;;;;11.93;71.10;97599.48;108724;1266;22575;-71
2024/04/13 01:33:05;;;;;;;7.30;4.00;;;;;;;11.90;71.22;97598.89;108784;1272;26472;-72
2024/04/13 01:35:35;;;;;;;7.30;4.20;;;;;;;11.88;71.43;97596.08;108755;1272;22531;-72
2024/04/13 01:38:06;;;;;;;6.60;4.20;;;;;;;11.88;71.44;97599.37;108767;1272;25349;-71
2024/04/13 01:40:36;;;;;;;7.40;4.40;;;;;;;11.83;71.40;97594.58;108815;1272;22559;-72
2024/04/13 01:43:07;;;;;;;7.00;4.30;;;;;;;11.81;71.66;97589.81;108799;1271;22587;-72
2024/04/13 01:45:37;;;;;;;6.90;4.40;;;;;;;11.79;71.72;97593.31;108779;1271;25400;-71
2024/04/13 01:48:10;;;;;;;6.80;3.70;;;;;;;11.79;71.72;97590.76;108765;1272;22548;-72
2024/04/13 01:50:42;;;;;;;5.80;3.70;;;;;;;11.80;71.83;97591.09;108751;1271;22565;-72
2024/04/13 01:53:13;;;;;;;7.60;3.90;;;;;;;11.81;71.71;97589.81;108770;1272;22538;-72
2024/04/13 01:55:46;;;;;;;7.50;4.20;;;;;;;11.79;71.66;97584.86;108767;1271;22556;-71
2024/04/13 01:58:17;;;;;;;6.20;3.90;;;;;;;11.75;71.72;97589.41;108728;1272;22503;-72
2024/04/13 02:00:48;;;;;;;6.40;3.70;;;;;;;11.71;71.74;97585.59;108780;1266;25498;-72
2024/04/13 02:03:18;;;;;;;5.80;3.70;;;;;;;11.69;71.89;97584.73;108797;1262;24233;-72
2024/04/13 02:05:49;;;;;;;6.60;4.20;;;;;;;11.69;71.81;97581.38;108729;1271;22713;-72
2024/04/13 02:08:19;;;;;;;7.00;4.00;;;;;;;11.69;71.82;97573.30;108775;1269;22969;-71
2024/04/13 02:10:50;;;;;;;7.60;4.20;;;;;;;11.72;72.18;97573.21;108779;1271;22526;-72
2024/04/13 02:13:20;;;;;;;9.30;4.50;;;;;;;11.78;72.11;97573.06;108726;1266;22523;-71
2024/04/13 02:15:51;;;;;;;6.10;3.60;;;;;;;11.83;72.09;97569.81;108732;1266;22519;-72
2024/04/13 02:18:21;;;;;;;7.90;4.00;;;;;;;11.79;71.81;97575.41;108758;1266;23317;-72
2024/04/13 02:20:52;;;;;;;6.30;3.80;;;;;;;11.73;71.90;97574.38;108718;1266;22515;-72
2024/04/13 02:23:23;;;;;;;8.30;4.00;;;;;;;11.69;72.05;97573.63;108712;1266;22516;-72
2024/04/13 02:25:54;;;;;;;6.00;4.00;;;;;;;11.74;72.08;97570.34;108742;1271;22541;-72
2024/04/13 02:28:26;;;;;;;6.50;3.80;;;;;;;11.83;72.12;97572.52;108782;1272;22613;-72
2024/04/13 02:30:57;;;;;;;5.50;3.40;;;;;;;11.88;71.97;97572.52;108727;1267;22530;-72
2024/04/13 02:33:27;;;;;;;5.30;3.70;;;;;;;11.92;71.87;97571.67;108707;1271;23332;-72
2024/04/13 02:36:01;;;;;;;5.40;3.70;;;;;;;11.94;71.78;97566.15;108722;1269;22634;-72
2024/04/13 02:38:33;;;;;;;5.40;3.60;;;;;;;11.98;71.69;97567.89;108730;1272;22528;-72
2024/04/13 02:41:04;;;;;;;6.40;3.70;;;;;;;11.98;71.63;97571.81;108771;1272;22530;-72
2024/04/13 02:43:36;;;;;;;8.50;4.10;;;;;;;11.97;71.58;97569.00;108750;1268;22550;-72
2024/04/13 02:46:08;;;;;;;5.40;3.80;;;;;;;11.94;71.44;97568.27;108665;1272;22552;-72
2024/04/13 02:48:41;;;;;;;7.10;3.70;;;;;;;11.74;71.19;97571.67;108760;1272;22543;-72
2024/04/13 02:51:13;;;;;;;5.90;3.30;;;;;;;11.35;71.38;97572.53;108730;1272;23356;-72
2024/04/13 02:53:44;;;;;;;5.20;3.50;;;;;;;11.04;72.01;97574.55;108780;1266;24189;-72
2024/04/13 02:56:15;;;;;;;4.90;3.40;;;;;;;10.88;72.71;97570.58;108715;1272;22527;-72
2024/04/13 02:58:49;;;;;;;5.40;3.00;;;;;;;10.73;73.19;97574.48;108731;1269;23170;-72
2024/04/13 03:01:19;;;;;;;4.80;2.90;;;;;;;10.64;73.64;97563.80;108740;1272;22516;-72
2024/04/13 03:03:50;;;;;;;4.90;3.20;;;;;;;10.63;73.85;97568.30;108743;1265;22519;-72
2024/04/13 03:06:20;;;;;;;5.80;3.40;;;;;;;10.50;73.94;97562.48;108726;1272;22587;-72
2024/04/13 03:20:01;;;;;;;4.20;3.00;;;;;;;10.97;73.73;97574.14;106071;1296;558449;-73
2024/04/13 03:22:33;;;;;;;5.70;2.90;;;;;;;10.92;73.89;97579.00;107517;1281;125651;-73
2024/04/13 03:25:05;;;;;;;5.70;3.10;;;;;;;10.88;74.27;97579.83;107746;1279;25292;-72
2024/04/13 03:27:36;;;;;;;7.30;3.70;;;;;;;10.92;74.63;97581.23;107695;1279;22548;-73
2024/04/13 03:30:09;;;;;;;5.40;3.90;;;;;;;10.96;74.71;97586.02;107740;1279;22538;-72
2024/04/13 03:32:41;;;;;;;9.10;3.80;;;;;;;10.99;74.68;97586.59;107843;1283;22676;-72
2024/04/13 03:35:12;;;;;;;6.00;3.70;;;;;;;11.02;75.25;97587.23;107776;1279;25339;-73
2024/04/13 03:37:43;;;;;;;5.40;3.60;;;;;;;11.04;74.79;97582.95;107728;1281;24510;-72
2024/04/13 03:40:14;;;;;;;5.80;4.10;;;;;;;10.97;74.58;97583.00;107756;1280;22548;-72
2024/04/13 03:42:48;;;;;;;5.60;3.90;;;;;;;10.95;74.71;97579.48;107733;1279;22548;-72
2024/04/13 03:45:19;;;;;;;6.20;3.70;;;;;;;10.95;74.82;97579.75;107802;1281;22533;-73
2024/04/13 03:47:49;;;;;;;4.60;3.60;;;;;;;10.96;74.68;97580.77;107816;1279;22531;-72
2024/04/13 03:50:20;;;;;;;5.80;4.00;;;;;;;10.97;74.71;97579.08;107759;1279;22565;-72
2024/04/13 03:52:51;;;;;;;6.60;3.10;;;;;;;10.97;74.69;97582.09;107801;1278;22539;-72
2024/04/13 03:55:24;;;;;;;3.70;2.60;;;;;;;10.99;74.74;97584.04;107754;1278;24294;-72
2024/04/13 03:57:55;;;;;;;4.00;3.10;;;;;;;10.99;74.70;97585.10;107785;1273;22575;-72
2024/04/13 04:00:26;;;;;;;4.40;3.10;;;;;;;11.04;74.88;97582.58;107765;1278;22528;-72
2024/04/13 04:02:57;;;;;;;7.30;3.90;;;;;;;11.14;74.80;97585.29;107828;1284;22557;-72
2024/04/13 04:05:28;;;;;;;6.00;3.10;;;;;;;11.21;74.63;97586.06;107865;1279;22577;-72
2024/04/13 04:07:59;;;;;;;4.60;3.20;;;;;;;11.26;74.56;97589.65;107742;1279;22553;-73
2024/04/13 04:10:33;;;;;;;5.70;3.60;;;;;;;11.33;74.43;97583.61;107788;1285;22539;-72
2024/04/13 04:13:05;;;;;;;4.90;2.70;;;;;;;11.38;74.27;97588.73;107765;1286;22595;-72
2024/04/13 04:15:36;;;;;;;8.10;3.50;;;;;;;11.43;74.28;97591.69;107870;1280;22569;-72
2024/04/13 04:18:07;;;;;;;6.80;3.10;;;;;;;11.48;74.17;97589.90;107771;1286;22548;-72
2024/04/13 04:20:39;;;;;;;4.60;3.00;;;;;;;11.55;74.10;97591.69;108160;1280;22520;-72
2024/04/13 04:23:09;;;;;;;7.30;3.60;;;;;;;11.65;74.00;97588.84;108176;1271;22654;-72
2024/04/13 04:25:40;;;;;;;5.60;3.50;;;;;;;11.76;73.79;97584.31;108193;1273;26315;-72
2024/04/13 04:28:11;;;;;;;4.70;3.20;;;;;;;11.85;73.56;97584.48;108144;1280;22742;-72
2024/04/13 04:30:45;;;;;;;5.20;3.20;;;;;;;11.93;73.28;97587.40;108207;1275;24413;-73
2024/04/13 04:33:16;;;;;;;4.30;3.10;;;;;;;11.96;73.11;97587.15;108415;1272;22551;-73
2024/04/13 04:35:47;;;;;;;5.50;3.70;;;;;;;11.91;73.13;97586.71;108388;1272;22524;-72
2024/04/13 04:38:17;;;;;;;4.40;2.90;;;;;;;11.87;73.07;97587.25;108348;1278;22550;-73
2024/04/13 04:40:51;;;;;;;4.80;3.10;;;;;;;11.91;73.07;97591.19;108235;1272;22542;-72
2024/04/13 04:43:21;;;;;;;3.70;2.30;;;;;;;11.96;72.98;97594.27;108207;1272;22650;-73
2024/04/13 04:45:52;;;;;;;3.80;2.40;;;;;;;12.10;72.90;97596.38;108119;1280;22552;-72
2024/04/13 04:48:22;;;;;;;5.20;2.50;;;;;;;12.27;72.67;97599.34;108053;1274;23571;-72
2024/04/13 04:50:59;;;;;;;4.00;2.80;;;;;;;12.38;72.64;97602.10;108102;1278;22591;-71
2024/04/13 04:53:29;;;;;;;4.40;2.90;;;;;;;12.45;72.36;97601.27;108156;1281;24789;-71
2024/04/13 04:56:00;;;;;;;4.60;3.00;;;;;;;12.58;72.10;97603.28;108133;1281;24554;-71
2024/04/13 04:58:31;;;;;;;5.40;2.90;;;;;;;12.70;71.88;97599.39;108108;1273;22536;-72
2024/04/13 05:01:01;;;;;;;5.40;2.90;;;;;;;12.82;71.63;97597.79;108130;1273;25281;-72
2024/04/13 05:03:33;;;;;;;3.70;2.50;;;;;;;12.96;71.72;97602.50;108046;1274;22548;-72
2024/04/13 05:06:05;;;;;;;5.10;2.70;;;;;;;13.08;71.30;97605.15;108117;1279;22530;-72
2024/04/13 05:08:36;;;;;;;4.80;2.60;;;;;;;13.19;70.57;97605.25;108047;1278;25286;-73
2024/04/13 05:11:06;;;;;;;5.70;2.90;;;;;;;13.29;69.95;97604.98;108039;1275;22518;-73
2024/04/13 05:13:37;;;;;;;4.10;2.90;;;;;;;13.35;69.38;97611.38;108123;1278;22561;-72
2024/04/13 05:16:09;;;;;;;3.70;2.70;;;;;;;13.39;69.05;97612.03;108069;1275;22636;-72
2024/04/13 05:18:43;;;;;;;3.40;2.50;;;;;;;13.42;68.33;97609.14;108101;1275;22561;-72
2024/04/13 05:21:13;;;;;;;4.90;2.90;;;;;;;13.46;68.10;97606.52;108095;1275;24219;-72
2024/04/13 05:23:44;;;;;;;5.40;3.30;;;;;;;13.47;68.22;97610.66;108044;1275;27469;-72
2024/04/13 05:26:15;;;;;;;5.00;2.60;;;;;;;13.48;67.96;97611.65;108115;1281;22541;-71
2024/04/13 05:28:46;;;;;;;6.80;2.90;;;;;;;13.52;67.69;97619.34;108070;1281;22551;-71
2024/04/13 05:31:16;;;;;;;5.20;2.90;;;;;;;13.58;67.63;97620.75;108115;1281;25523;-71
2024/04/13 05:33:47;;;;;;;5.80;2.90;;;;;;;13.66;67.13;97617.09;108114;1274;25366;-71
2024/04/13 05:36:18;;;;;;;5.10;3.00;;;;;;;13.79;66.52;97618.69;108150;1275;22536;-72
2024/04/13 05:38:49;;;;;;;5.90;2.60;;;;;;;13.92;66.27;97621.89;108098;1281;25251;-72
2024/04/13 05:41:19;;;;;;;5.60;2.70;;;;;;;14.13;66.01;97624.59;108075;1278;25248;-71
2024/04/13 05:43:50;;;;;;;4.50;2.40;;;;;;;14.27;65.30;97621.90;108133;1281;25301;-72
2024/04/13 05:46:21;;;;;;;5.30;2.40;;;;;;;14.30;65.01;97618.61;108062;1274;23309;-72
2024/04/13 05:48:52;;;;;;;4.80;2.80;;;;;;;14.30;65.01;97618.55;108074;1281;22696;-69
2024/04/13 05:51:23;;;;;;;3.70;2.50;;;;;;;14.56;64.75;97609.65;108016;1274;22663;-70
2024/04/13 05:53:53;;;;;;;4.10;2.50;;;;;;;15.14;63.96;97607.73;108333;1269;22557;-69
2024/04/13 05:56:24;;;;;;;5.10;2.40;;;;;;;16.10;62.73;97604.67;108441;1274;22665;-70
2024/04/13 05:58:55;;;;;;;4.50;2.60;;;;;;;17.11;60.36;97604.12;108427;1272;22561;-71
2024/04/13 06:01:25;;;;;;;3.70;2.40;;;;;;;17.85;58.62;97609.66;108460;1269;22611;-70
2024/04/13 06:03:56;;;;;;;4.20;2.20;;;;;;;18.48;57.73;97606.84;108417;1269;25362;-70
2024/04/13 06:06:27;;;;;;;4.70;2.00;;;;;;;19.09;55.58;97603.05;108361;1271;22534;-70
2024/04/13 06:08:58;;;;;;;3.50;2.10;;;;;;;19.28;53.53;97599.98;108530;1270;24515;-70
2024/04/13 06:11:28;;;;;;;5.30;2.10;;;;;;;19.61;53.57;97599.89;108456;1269;22570;-70
2024/04/13 06:13:59;;;;;;;4.30;2.10;;;;;;;19.92;52.31;97600.28;108437;1275;24246;-70
2024/04/13 06:16:31;;;;;;;3.60;2.30;;;;;;;20.66;51.49;97600.13;108354;1269;25272;-70
2024/04/13 06:19:01;;;;;;;4.00;1.90;;;;;;;21.28;49.94;97598.31;108450;1269;22529;-70
2024/04/13 06:21:32;;;;;;;4.20;2.00;;;;;;;21.85;48.15;97597.34;108406;1269;22563;-70
2024/04/13 06:24:04;;;;;;;2.70;1.70;;;;;;;21.81;46.63;97595.87;108413;1273;23246;-70
2024/04/13 06:26:35;;;;;;;3.80;2.00;;;;;;;21.77;46.33;97595.27;108599;1271;22554;-70
2024/04/13 06:29:06;;;;;;;3.40;2.10;;;;;;;22.09;46.94;97594.73;108504;1276;24189;-70
2024/04/13 06:31:37;;;;;;;4.00;2.10;;;;;;;21.58;45.87;97592.81;108489;1273;25905;-71
2024/04/13 06:34:08;;;;;;;3.20;2.20;;;;;;;20.95;46.69;97592.27;108474;1275;22563;-70
2024/04/13 06:36:39;;;;;;;3.00;2.20;;;;;;;21.63;46.80;97599.19;108565;1272;22542;-70
2024/04/13 06:39:14;;;;;;;3.80;2.30;;;;;;;21.66;45.99;97599.90;108490;1276;22562;-71
2024/04/13 06:41:44;;;;;;;6.30;2.80;;;;;;;21.50;46.80;97597.92;108444;1271;22525;-70
2024/04/13 06:44:15;;;;;;;3.00;2.30;;;;;;;21.69;44.70;97591.54;108518;1269;22511;-70
2024/04/13 06:46:46;;;;;;;6.20;2.30;;;;;;;21.65;44.14;97586.77;108521;1275;22533;-70
2024/04/13 06:49:20;;;;;;;5.00;2.40;;;;;;;21.54;43.72;97588.18;108522;1271;22533;-70
2024/04/13 06:51:56;;;;;;;3.30;2.40;;;;;;;20.80;44.20;97584.11;108485;1275;22529;-70
2024/04/13 06:54:27;;;;;;;3.80;1.90;;;;;;;20.09;46.13;97595.77;108619;1276;26445;-71
2024/04/13 06:57:00;;;;;;;3.60;2.10;;;;;;;20.48;46.36;97583.65;108512;1272;22561;-70
2024/04/13 06:59:34;;;;;;;3.90;2.50;;;;;;;20.96;46.11;97579.65;108480;1274;22535;-70
2024/04/13 07:02:05;;;;;;;5.30;2.50;;;;;;;22.06;45.52;97575.14;108488;1276;22520;-70
2024/04/13 07:04:36;;;;;;;5.00;2.10;;;;;;;22.77;42.85;97570.70;108456;1274;22694;-70
2024/04/13 07:07:07;;;;;;;4.70;2.70;;;;;;;23.45;42.33;97570.73;108456;1276;22555;-71
2024/04/13 07:09:38;;;;;;;4.30;2.20;;;;;;;24.14;41.74;97567.67;108472;1269;22526;-70
2024/04/13 07:12:12;;;;;;;5.10;2.50;;;;;;;25.05;41.72;97571.91;108384;1275;22529;-71
2024/04/13 07:14:45;;;;;;;3.50;1.90;;;;;;;26.18;40.61;97569.54;108409;1270;25461;-70
2024/04/13 07:17:15;;;;;;;4.20;1.90;;;;;;;26.87;38.98;97572.39;108437;1274;22563;-70
2024/04/13 07:19:46;;;;;;;5.40;1.80;;;;;;;26.93;36.27;97575.23;108478;1277;22538;-71
2024/04/13 07:22:18;;;;;;;5.00;2.10;;;;;;;26.50;36.24;97576.66;108443;1276;22533;-70
2024/04/13 07:24:49;;;;;;;4.10;1.90;;;;;;;25.63;36.00;97570.54;108500;1276;22578;-70
2024/04/13 07:27:20;;;;;;;6.10;2.30;;;;;;;25.99;37.27;97565.23;108535;1272;22529;-70
2024/04/13 07:29:51;;;;;;;4.20;1.80;;;;;;;26.42;36.49;97561.58;108492;1276;25361;-71
2024/04/13 07:32:25;;;;;;;3.70;2.00;;;;;;;26.44;36.07;97562.30;108506;1276;25247;-71
2024/04/13 07:35:02;;;;;;;3.90;2.30;;;;;;;26.96;36.38;97562.20;108474;1276;22532;-71
2024/04/13 07:37:33;;;;;;;4.90;2.00;;;;;;;27.58;36.32;97557.89;108323;1270;22528;-71
2024/04/13 07:40:11;;;;;;;4.00;2.20;;;;;;;26.63;36.11;97562.89;108432;1275;22522;-70
2024/04/13 07:42:44;;;;;;;4.90;2.10;;;;;;;24.76;36.31;97559.38;108554;1268;22523;-70
2024/04/13 07:45:16;;;;;;;5.30;2.20;;;;;;;23.27;38.38;97565.59;108536;1275;22527;-70
2024/04/13 07:47:52;;;;;;;3.90;1.70;;;;;;;21.78;40.36;97565.26;108546;1275;22524;-70
2024/04/13 07:50:25;;;;;;;4.50;2.00;;;;;;;20.57;42.47;97559.12;108440;1275;22541;-69
2024/04/13 07:52:59;;;;;;;5.00;2.00;;;;;;;20.25;43.66;97559.45;108605;1268;22595;-69
2024/04/13 07:55:35;;;;;;;4.60;2.30;;;;;;;19.96;44.27;97560.02;108530;1272;22519;-70
2024/04/13 07:58:07;;;;;;;4.30;2.20;;;;;;;20.78;44.34;97567.62;108499;1272;24265;-70
2024/04/13 08:00:39;;;;;;;3.20;2.10;;;;;;;21.29;43.00;97565.14;108519;1272;22526;-69
2024/04/13 08:03:10;;;;;;;2.90;2.00;;;;;;;21.31;42.79;97570.86;108534;1275;22512;-69
2024/04/13 08:05:42;;;;;;;3.10;2.10;;;;;;;20.94;43.33;97565.58;108531;1269;22620;-70
2024/04/13 08:08:13;;;;;;;3.80;2.50;;;;;;;21.46;44.02;97562.80;108535;1275;22536;-70
2024/04/13 08:10:47;;;;;;;4.10;2.10;;;;;;;22.56;43.14;97567.58;108507;1275;22534;-70
2024/04/13 08:13:18;;;;;;;5.10;2.40;;;;;;;23.65;41.85;97564.36;108482;1275;22533;-69
2024/04/13 08:15:51;;;;;;;4.10;2.30;;;;;;;23.48;40.60;97554.76;108525;1275;25301;-70
2024/04/13 08:18:26;;;;;;;4.90;2.60;;;;;;;23.37;41.20;97551.57;108473;1275;22538;-70
2024/04/13 08:20:57;;;;;;;4.30;2.20;;;;;;;24.09;40.82;97549.86;108552;1270;22532;-70
2024/04/13 08:23:28;;;;;;;3.40;2.00;;;;;;;24.93;40.69;97546.88;108549;1275;22527;-69
2024/04/13 08:26:05;;;;;;;5.80;2.00;;;;;;;25.03;38.95;97541.07;108557;1269;22533;-70
2024/04/13 08:28:37;;;;;;;4.50;2.10;;;;;;;24.89;38.69;97538.63;108498;1275;25422;-70
2024/04/13 08:31:11;;;;;;;5.80;2.40;;;;;;;24.93;38.46;97542.15;108517;1275;22541;-70
2024/04/13 08:33:47;;;;;;;5.50;2.20;;;;;;;24.98;38.74;97541.80;108519;1269;22536;-70
2024/04/13 08:36:23;;;;;;;3.90;2.20;;;;;;;24.93;38.72;97545.30;108523;1275;22534;-70
2024/04/13 08:38:54;;;;;;;5.50;2.40;;;;;;;24.84;38.87;97547.34;108553;1275;22586;-69
2024/04/13 08:41:35;;;;;;;7.30;2.70;;;;;;;23.92;39.13;97551.98;108366;1270;22523;-70
2024/04/13 08:44:10;;;;;;;6.20;2.60;;;;;;;23.56;40.87;97550.15;108483;1273;22522;-69
2024/04/13 08:46:42;;;;;;;4.70;2.70;;;;;;;23.80;40.96;97556.23;108604;1275;22523;-70
2024/04/13 08:49:16;;;;;;;3.90;2.40;;;;;;;24.06;41.28;97551.27;108530;1269;22526;-70
2024/04/13 08:51:48;;;;;;;4.50;2.50;;;;;;;24.34;40.85;97551.09;108555;1275;22539;-70
2024/04/13 08:54:21;;;;;;;5.00;2.30;;;;;;;23.72;41.10;97550.63;108512;1272;22526;-70
2024/04/13 08:56:52;;;;;;;4.80;2.50;;;;;;;22.88;42.76;97551.25;108552;1272;22530;-68
2024/04/13 08:59:28;;;;;;;3.70;2.80;;;;;;;22.77;42.77;97554.20;108532;1275;26426;-70
2024/04/13 09:02:02;;;;;;;5.30;2.60;;;;;;;22.33;43.78;97558.42;108492;1272;22529;-70
2024/04/13 09:04:36;;;;;;;4.60;2.10;;;;;;;22.32;44.43;97558.52;108515;1272;22548;-70
2024/04/13 09:07:09;;;;;;;3.20;2.00;;;;;;;22.05;44.69;97560.53;108573;1275;22526;-70
2024/04/13 09:09:41;;;;;;;6.80;2.70;;;;;;;21.72;45.74;97558.84;108461;1271;22530;-69
2024/04/13 09:12:13;;;;;;;3.80;2.30;;;;;;;21.30;46.09;97557.17;108463;1269;23376;-70
2024/04/13 09:14:44;;;;;;;3.80;2.40;;;;;;;20.84;46.92;97553.48;108507;1275;22537;-70
2024/04/13 09:17:16;;;;;;;6.20;2.80;;;;;;;20.20;48.37;97547.02;108512;1273;24260;-70
2024/04/13 09:19:49;;;;;;;4.40;2.10;;;;;;;19.88;49.29;97553.03;108498;1269;24285;-69
2024/04/13 09:22:24;;;;;;;5.60;2.80;;;;;;;19.66;50.00;97561.83;108487;1275;22529;-70
2024/04/13 09:25:01;;;;;;;5.60;2.70;;;;;;;19.89;50.93;97555.09;108475;1275;25597;-70
2024/04/13 09:27:36;;;;;;;4.90;2.60;;;;;;;20.08;50.84;97554.70;108564;1275;22545;-70
2024/04/13 09:30:13;;;;;;;5.00;2.70;;;;;;;20.00;50.54;97554.43;108495;1276;22586;-70
2024/04/13 09:32:50;;;;;;;6.40;3.10;;;;;;;20.09;51.15;97551.69;108566;1270;25310;-70
2024/04/13 09:35:21;;;;;;;7.00;3.20;;;;;;;20.46;51.07;97554.60;108457;1273;23271;-70
2024/04/13 09:38:01;;;;;;;6.10;3.60;;;;;;;20.59;50.00;97549.54;108493;1274;22549;-70
2024/04/13 09:40:36;;;;;;;5.80;3.20;;;;;;;20.55;50.04;97549.95;108484;1269;22554;-70
2024/04/13 09:43:08;;;;;;;5.90;3.40;;;;;;;20.71;50.43;97547.41;108524;1276;22947;-70
2024/04/13 09:45:45;;;;;;;6.20;3.20;;;;;;;20.74;50.45;97535.61;108487;1270;22521;-69
2024/04/13 09:48:18;;;;;;;5.50;4.00;;;;;;;20.69;50.29;97538.13;108510;1275;22527;-70
2024/04/13 09:50:50;;;;;;;7.30;4.00;;;;;;;20.30;50.46;97535.15;108599;1275;22534;-70
2024/04/13 09:53:24;;;;;;;6.60;3.60;;;;;;;20.22;51.06;97526.05;108595;1275;25376;-70
2024/04/13 09:55:55;;;;;;;6.30;3.20;;;;;;;20.43;51.30;97528.17;108508;1276;22549;-69
2024/04/13 09:58:32;;;;;;;5.30;3.10;;;;;;;20.71;50.83;97528.14;108635;1275;22610;-70
2024/04/13 10:01:04;;;;;;;4.30;3.20;;;;;;;20.83;50.41;97525.25;108638;1275;22584;-70
2024/04/13 10:03:38;;;;;;;4.30;3.30;;;;;;;20.40;49.79;97522.95;108635;1275;22532;-69
2024/04/13 10:06:15;;;;;;;4.10;3.10;;;;;;;20.19;50.84;97517.51;108530;1275;22524;-69
2024/04/13 10:08:51;;;;;;;6.00;3.30;;;;;;;20.26;51.36;97520.52;108596;1272;24282;-70
2024/04/13 10:11:30;;;;;;;8.10;3.60;;;;;;;20.49;51.95;97516.83;108479;1269;22712;-69
2024/04/13 10:14:02;;;;;;;6.50;3.80;;;;;;;20.82;51.45;97517.23;108564;1273;22519;-70
2024/04/13 10:16:33;;;;;;;4.80;3.60;;;;;;;21.04;51.28;97518.13;108528;1269;22539;-70
2024/04/13 10:19:07;;;;;;;5.50;3.60;;;;;;;21.21;51.04;97519.73;108523;1275;22537;-71
2024/04/13 10:21:38;;;;;;;5.00;3.80;;;;;;;21.18;50.81;97521.69;108516;1275;22978;-69
2024/04/13 10:24:17;;;;;;;6.60;3.20;;;;;;;21.43;51.44;97522.60;108493;1275;22534;-70
2024/04/13 10:26:51;;;;;;;6.10;3.40;;;;;;;21.72;50.91;97527.42;108534;1276;22526;-69
2024/04/13 10:29:37;;;;;;;4.60;3.10;;;;;;;21.83;50.44;97531.15;108504;1275;22751;-69
2024/04/13 10:32:16;;;;;;;6.40;3.40;;;;;;;21.73;49.87;97534.89;108515;1273;22532;-70
2024/04/13 10:34:47;;;;;;;6.10;2.90;;;;;;;21.44;49.41;97526.81;108554;1266;22529;-69
2024/04/13 10:37:32;;;;;;;4.00;3.30;;;;;;;21.00;49.47;97530.83;108556;1275;22541;-69
2024/04/13 10:40:05;;;;;;;6.80;3.60;;;;;;;20.65;49.71;97533.27;108574;1273;26485;-70
2024/04/13 10:42:40;;;;;;;6.20;3.40;;;;;;;20.83;50.83;97532.32;108533;1275;22529;-71
2024/04/13 10:45:17;;;;;;;5.40;3.10;;;;;;;20.94;50.24;97529.02;108558;1275;22540;-70
2024/04/13 10:47:50;;;;;;;5.40;2.20;;;;;;;20.68;49.95;97526.20;108568;1270;22523;-70
2024/04/13 10:50:22;;;;;;;4.40;3.00;;;;;;;20.61;49.90;97516.50;108512;1275;22539;-71
2024/04/13 10:52:58;;;;;;;4.50;3.00;;;;;;;20.33;50.42;97513.58;108468;1270;22584;-70
2024/04/13 10:55:33;;;;;;;7.20;3.00;;;;;;;20.40;50.19;97514.13;108488;1276;22561;-70
2024/04/13 10:58:06;;;;;;;5.10;3.60;;;;;;;20.46;49.87;97510.95;108462;1273;22542;-70
2024/04/13 11:00:39;;;;;;;4.70;2.70;;;;;;;20.25;49.05;97515.61;108448;1273;23411;-70
2024/04/13 11:03:10;;;;;;;5.50;3.30;;;;;;;19.97;49.20;97505.33;108341;1276;22645;-72
2024/04/13 11:05:44;;;;;;;7.30;3.50;;;;;;;19.71;49.72;97503.19;108404;1276;22531;-70
2024/04/13 11:08:18;;;;;;;5.90;3.00;;;;;;;19.48;50.32;97498.23;108443;1276;22531;-70
2024/04/13 11:10:53;;;;;;;5.80;2.80;;;;;;;19.46;51.22;97498.95;108335;1275;22527;-70
2024/04/13 11:13:25;;;;;;;4.90;2.70;;;;;;;19.68;50.92;97495.63;108430;1273;22574;-71
2024/04/13 11:15:57;;;;;;;6.20;2.80;;;;;;;19.95;50.56;97490.13;108509;1276;22595;-71
2024/04/13 11:18:29;;;;;;;5.00;2.60;;;;;;;20.12;49.79;97476.11;108366;1275;22734;-72
2024/04/13 11:21:04;;;;;;;3.50;2.70;;;;;;;20.13;49.36;97468.55;108556;1276;22547;-71
2024/04/13 11:23:35;;;;;;;3.70;2.00;;;;;;;20.17;49.10;97457.34;108617;1276;22537;-70
2024/04/13 11:26:06;;;;;;;4.30;2.50;;;;;;;20.23;48.48;97447.80;108576;1276;22534;-71
2024/04/13 11:28:41;;;;;;;4.90;2.40;;;;;;;20.24;48.86;97447.87;108542;1269;22536;-71
2024/04/13 11:31:13;;;;;;;5.30;2.60;;;;;;;20.40;48.18;97445.09;108539;1261;22530;-71
2024/04/13 11:33:44;;;;;;;8.30;5.00;;;;;;;20.31;48.40;97438.48;108558;1273;22568;-72
2024/04/13 11:36:23;;;;;;;4.10;2.10;;;;;;;20.30;48.27;97436.20;108594;1272;22850;-71
2024/04/13 11:38:57;;;;;;;3.50;2.10;;;;;;;20.26;48.20;97444.20;108605;1263;22538;-72
2024/04/13 11:41:30;;;;;;;3.70;2.10;;;;;;;20.21;48.14;97445.10;108691;1274;22541;-71
2024/04/13 11:44:07;;;;;;;3.30;2.50;;;;;;;20.29;48.26;97437.00;108668;1275;23068;-71
2024/04/13 11:46:40;;;;;;;7.00;2.90;;;;;;;20.41;48.64;97434.60;108697;1275;22537;-71
2024/04/13 11:49:12;;;;;;;3.30;1.90;;;;;;;20.61;48.75;97427.58;108703;1269;25326;-72
2024/04/13 11:51:45;;;;;;;7.40;2.90;;;;;;;20.72;48.18;97428.12;108688;1264;22547;-73
2024/04/13 11:54:24;;;;;;;3.70;2.30;;;;;;;20.90;47.52;97430.21;108716;1275;22534;-73
2024/04/13 11:56:56;;;;;;;8.20;4.10;;;;;;;21.03;46.50;97432.02;108773;1269;22645;-72
2024/04/13 11:59:32;;;;;;;3.80;1.50;;;;;;;21.09;46.58;97429.95;108644;1268;22535;-71